createdAt,value
2022-12-03T00:01:48.675Z,98614.74
2022-12-03T00:04:15.165Z,98610.11
2022-12-03T00:06:41.772Z,98608.48
2022-12-03T00:09:08.383Z,98612.59
2022-12-03T00:11:34.903Z,98619.40
2022-12-03T00:14:01.408Z,98625.61
2022-12-03T00:16:28.107Z,98628.19
2022-12-03T00:18:54.852Z,98633.39
2022-12-03T00:21:22.861Z,98638.80
2022-12-03T00:23:51.197Z,98640.74
2022-12-03T00:26:17.773Z,98636.67
2022-12-03T00:28:44.272Z,98638.52
2022-12-03T00:31:10.951Z,98638.98
2022-12-03T00:33:37.624Z,98638.47
2022-12-03T00:36:04.346Z,98640.16
2022-12-03T00:38:30.808Z,98643.13
2022-12-03T00:40:57.329Z,98649.65
2022-12-03T00:43:23.926Z,98652.41
2022-12-03T00:45:50.520Z,98653.05
2022-12-03T00:48:17.257Z,98658.19
2022-12-03T00:50:43.999Z,98661.60
2022-12-03T00:53:10.531Z,98656.70
2022-12-03T00:55:37.159Z,98654.40
2022-12-03T00:58:03.793Z,98652.35
2022-12-03T01:00:30.300Z,98651.98
2022-12-03T01:02:56.875Z,98655.60
2022-12-03T01:05:23.467Z,98655.41
2022-12-03T01:07:50.389Z,98658.13
2022-12-03T01:10:17.294Z,98661.23
2022-12-03T01:12:44.217Z,98659.77
2022-12-03T01:15:10.762Z,98655.18
2022-12-03T01:17:37.705Z,98658.67
2022-12-03T01:20:04.926Z,98655.38
2022-12-03T01:22:31.711Z,98651.29
2022-12-03T01:24:58.217Z,98653.42
2022-12-03T01:27:24.786Z,98655.52
2022-12-03T01:29:51.459Z,98651.27
2022-12-03T01:32:18.794Z,98648.42
2022-12-03T01:34:47.184Z,98648.59
2022-12-03T01:37:14.365Z,98648.61
2022-12-03T01:39:41.379Z,98644.87
2022-12-03T01:42:11.777Z,98641.56
2022-12-03T01:44:39.157Z,98640.27
2022-12-03T01:47:07.049Z,98642.48
2022-12-03T01:49:42.631Z,98643.80
2022-12-03T01:52:13.582Z,98645.56
2022-12-03T01:54:41.789Z,98651.77
2022-12-03T01:57:37.869Z,98651.23
2022-12-03T02:00:05.120Z,98654.34
2022-12-03T02:02:32.478Z,98651.67
2022-12-03T02:05:00.545Z,98652.54
2022-12-03T02:07:29.061Z,98651.84
2022-12-03T02:09:57.712Z,98651.35
2022-12-03T02:12:27.587Z,98653.25
2022-12-03T02:14:55.006Z,98651.54
2022-12-03T02:17:22.265Z,98646.16
2022-12-03T02:19:49.217Z,98645.52
2022-12-03T02:22:21.581Z,98644.36
2022-12-03T02:24:48.181Z,98644.66
2022-12-03T02:27:14.961Z,98642.85
2022-12-03T02:29:41.870Z,98640.55
2022-12-03T02:32:08.501Z,98641.84
2022-12-03T02:34:36.504Z,98636.98
2022-12-03T02:37:04.158Z,98638.02
2022-12-03T02:39:32.296Z,98639.75
2022-12-03T02:42:17.602Z,98641.78
2022-12-03T02:44:44.320Z,98646.20
2022-12-03T02:47:10.996Z,98649.02
2022-12-03T02:49:37.955Z,98648.79
2022-12-03T02:52:04.446Z,98647.15
2022-12-03T02:54:31.164Z,98652.80
2022-12-03T02:56:57.808Z,98656.96
2022-12-03T02:59:24.548Z,98654.42
2022-12-03T03:01:51.185Z,98653.61
2022-12-03T03:04:18.031Z,98650.99
2022-12-03T03:06:44.989Z,98651.58
2022-12-03T03:09:11.677Z,98652.29
2022-12-03T03:11:38.346Z,98655.45
2022-12-03T03:14:04.889Z,98658.16
2022-12-03T03:16:32.773Z,98655.79
2022-12-03T03:18:59.839Z,98654.21
2022-12-03T03:21:26.366Z,98656.58
2022-12-03T03:23:53.190Z,98657.81
2022-12-03T03:26:19.786Z,98661.69
2022-12-03T03:28:50.500Z,98661.98
2022-12-03T03:31:20.281Z,98662.80
2022-12-03T03:33:47.607Z,98661.03
2022-12-03T03:36:14.966Z,98662.58
2022-12-03T03:38:41.862Z,98660.56
2022-12-03T03:41:09.975Z,98659.52
2022-12-03T03:43:38.215Z,98659.73
2022-12-03T03:46:05.996Z,98658.48
2022-12-03T03:48:33.953Z,98660.58
2022-12-03T03:51:02.982Z,98665.80
2022-12-03T03:53:30.022Z,98664.80
2022-12-03T03:55:56.651Z,98663.44
2022-12-03T03:58:23.393Z,98665.01
2022-12-03T04:00:51.000Z,98668.92
2022-12-03T04:03:17.741Z,98670.84
2022-12-03T04:05:44.531Z,98671.86
2022-12-03T04:08:11.143Z,98671.77
2022-12-03T04:10:56.730Z,98674.02
2022-12-03T04:13:23.213Z,98677.00
2022-12-03T04:15:49.815Z,98675.16
2022-12-03T04:18:34.820Z,98676.10
2022-12-03T04:21:20.048Z,98674.89
2022-12-03T04:23:46.689Z,98677.59
2022-12-03T04:26:32.138Z,98678.13
2022-12-03T04:28:58.903Z,98676.14
2022-12-03T04:31:44.384Z,98673.66
2022-12-03T04:34:29.617Z,98675.36
2022-12-03T04:36:56.258Z,98674.31
2022-12-03T04:39:22.859Z,98672.19
2022-12-03T04:41:49.465Z,98673.75
2022-12-03T04:44:34.483Z,98672.45
2022-12-03T04:47:20.717Z,98670.58
2022-12-03T04:49:51.008Z,98671.86
2022-12-03T04:52:19.021Z,98675.54
2022-12-03T04:54:45.521Z,98682.20
2022-12-03T04:57:12.707Z,98687.52
2022-12-03T04:59:39.378Z,98685.67
2022-12-03T05:02:06.609Z,98682.14
2022-12-03T05:04:33.805Z,98687.04
2022-12-03T05:07:00.340Z,98688.38
2022-12-03T05:09:27.115Z,98690.18
2022-12-03T05:11:53.677Z,98691.14
2022-12-03T05:14:21.247Z,98691.20
2022-12-03T05:16:48.124Z,98692.88
2022-12-03T05:19:15.105Z,98688.87
2022-12-03T05:21:41.731Z,98691.08
2022-12-03T05:24:08.369Z,98688.92
2022-12-03T05:26:34.900Z,98687.98
2022-12-03T05:29:01.663Z,98691.60
2022-12-03T05:31:28.287Z,98693.75
2022-12-03T05:33:55.263Z,98692.16
2022-12-03T05:36:22.063Z,98690.00
2022-12-03T05:38:48.757Z,98693.70
2022-12-03T05:41:34.099Z,98689.29
2022-12-03T05:44:00.612Z,98690.03
2022-12-03T05:46:27.140Z,98697.40
2022-12-03T05:48:55.115Z,98700.13
2022-12-03T05:51:22.198Z,98704.64
2022-12-03T05:53:48.718Z,98705.44
2022-12-03T05:56:15.226Z,98704.35
2022-12-03T05:58:42.005Z,98705.92
2022-12-03T06:01:08.509Z,98714.88
2022-12-03T06:03:35.402Z,98718.59
2022-12-03T06:06:02.068Z,98718.25
2022-12-03T06:08:28.706Z,98721.67
2022-12-03T06:10:55.364Z,98721.42
2022-12-03T06:13:22.325Z,98721.16
2022-12-03T06:15:48.874Z,98716.94
2022-12-03T06:18:15.555Z,98718.52
2022-12-03T06:20:42.321Z,98723.05
2022-12-03T06:23:08.939Z,98720.08
2022-12-03T06:25:35.661Z,98725.77
2022-12-03T06:28:02.546Z,98722.70
2022-12-03T06:30:29.180Z,98719.70
2022-12-03T06:32:57.588Z,98719.33
2022-12-03T06:35:24.202Z,98723.91
2022-12-03T06:37:50.905Z,98725.53
2022-12-03T06:40:18.288Z,98729.49
2022-12-03T06:42:44.770Z,98728.27
2022-12-03T06:45:11.546Z,98737.95
2022-12-03T06:47:38.294Z,98738.04
2022-12-03T06:50:05.842Z,98740.96
2022-12-03T06:52:32.318Z,98742.55
2022-12-03T06:54:59.525Z,98747.20
2022-12-03T06:57:26.131Z,98742.50
2022-12-03T06:59:52.858Z,98743.86
2022-12-03T07:02:19.603Z,98738.50
2022-12-03T07:04:46.683Z,98738.84
2022-12-03T07:07:13.631Z,98736.55
2022-12-03T07:09:40.350Z,98739.85
2022-12-03T07:12:06.889Z,98734.91
2022-12-03T07:14:33.383Z,98738.09
2022-12-03T07:17:00.151Z,98735.41
2022-12-03T07:19:32.334Z,98730.27
2022-12-03T07:22:00.128Z,98733.10
2022-12-03T07:24:26.928Z,98733.04
2022-12-03T07:26:53.840Z,98731.63
2022-12-03T07:29:20.531Z,98735.23
2022-12-03T07:31:47.230Z,98734.17
2022-12-03T07:34:14.031Z,98735.27
2022-12-03T07:36:40.746Z,98735.98
2022-12-03T07:39:07.259Z,98738.38
2022-12-03T07:41:34.010Z,98738.74
2022-12-03T07:44:00.541Z,98740.39
2022-12-03T07:46:27.349Z,98737.61
2022-12-03T07:48:54.024Z,98745.23
2022-12-03T07:51:20.842Z,98746.14
2022-12-03T07:53:47.506Z,98746.66
2022-12-03T07:56:14.116Z,98748.79
2022-12-03T07:58:40.683Z,98751.69
2022-12-03T08:01:07.334Z,98754.30
2022-12-03T08:03:34.187Z,98754.59
2022-12-03T08:06:00.722Z,98749.37
2022-12-03T08:08:27.243Z,98748.52
2022-12-03T08:10:53.871Z,98746.07
2022-12-03T08:13:20.327Z,98746.95
2022-12-03T08:15:46.839Z,98743.95
2022-12-03T08:18:17.926Z,98744.15
2022-12-03T08:20:45.554Z,98741.59
2022-12-03T08:23:13.882Z,98737.53
2022-12-03T08:25:41.376Z,98738.02
2022-12-03T08:28:12.508Z,98740.11
2022-12-03T08:30:39.828Z,98746.98
2022-12-03T08:33:14.894Z,98750.19
2022-12-03T08:35:43.888Z,98752.67
2022-12-03T08:38:11.557Z,98751.20
2022-12-03T08:40:42.999Z,98753.97
2022-12-03T08:43:20.747Z,98751.09
2022-12-03T08:45:49.292Z,98748.48
2022-12-03T08:48:22.080Z,98750.15
2022-12-03T08:50:48.909Z,98749.33
2022-12-03T08:53:34.216Z,98752.38
2022-12-03T08:56:02.826Z,98750.87
2022-12-03T08:58:29.375Z,98753.10
2022-12-03T09:01:15.868Z,98755.48
2022-12-03T09:03:53.902Z,98756.06
2022-12-03T09:06:21.018Z,98758.45
2022-12-03T09:08:47.894Z,98755.51
2022-12-03T09:11:14.628Z,98752.94
2022-12-03T09:13:41.323Z,98750.44
2022-12-03T09:16:07.973Z,98750.17
2022-12-03T09:18:34.577Z,98748.79
2022-12-03T09:21:01.172Z,98751.48
2022-12-03T09:23:27.774Z,98751.58
2022-12-03T09:25:54.527Z,98744.73
2022-12-03T09:28:21.158Z,98746.02
2022-12-03T09:30:47.924Z,98743.64
2022-12-03T09:33:14.700Z,98746.96
2022-12-03T09:35:41.515Z,98747.53
2022-12-03T09:38:08.251Z,98746.97
2022-12-03T09:40:34.817Z,98746.90
2022-12-03T09:43:03.617Z,98744.84
2022-12-03T09:45:30.205Z,98740.23
2022-12-03T09:47:56.984Z,98739.75
2022-12-03T09:50:25.834Z,98742.26
2022-12-03T09:52:56.483Z,98738.55
2022-12-03T09:55:24.789Z,98737.64
2022-12-03T09:57:55.065Z,98739.45
2022-12-03T10:00:22.783Z,98740.96
2022-12-03T10:02:50.801Z,98736.29
2022-12-03T10:05:18.759Z,98733.23
2022-12-03T10:07:45.789Z,98735.52
2022-12-03T10:10:17.513Z,98731.75
2022-12-03T10:12:44.717Z,98727.14
2022-12-03T10:15:13.290Z,98729.53
2022-12-03T10:17:40.463Z,98733.27
2022-12-03T10:20:10.694Z,98730.70
2022-12-03T10:22:37.206Z,98727.02
2022-12-03T10:25:08.797Z,98727.98
2022-12-03T10:27:35.772Z,98728.23
2022-12-03T10:30:04.983Z,98724.94
2022-12-03T10:32:45.353Z,98720.19
2022-12-03T10:35:19.915Z,98730.39
2022-12-03T10:38:05.920Z,98734.00
2022-12-03T10:40:33.933Z,98734.02
2022-12-03T10:43:12.963Z,98735.27
2022-12-03T10:45:39.842Z,98735.20
2022-12-03T10:48:11.390Z,98736.42
2022-12-03T10:50:45.218Z,98731.02
2022-12-03T10:53:11.902Z,98725.69
2022-12-03T10:55:39.871Z,98724.48
2022-12-03T10:58:15.580Z,98726.08
2022-12-03T11:00:42.117Z,98721.21
2022-12-03T11:03:19.546Z,98718.37
2022-12-03T11:05:46.921Z,98718.25
2022-12-03T11:08:24.224Z,98719.06
2022-12-03T11:11:01.778Z,98713.61
2022-12-03T11:13:41.719Z,98713.21
2022-12-03T11:16:08.329Z,98713.23
2022-12-03T11:18:35.158Z,98707.17
2022-12-03T11:21:12.385Z,98700.73
2022-12-03T11:23:44.845Z,98701.06
2022-12-03T11:26:18.965Z,98701.70
2022-12-03T11:28:46.376Z,98699.88
2022-12-03T11:31:31.671Z,98699.70
2022-12-03T11:34:16.777Z,98700.12
2022-12-03T11:37:02.253Z,98701.98
2022-12-03T11:39:44.179Z,98697.86
2022-12-03T11:42:26.072Z,98693.60
2022-12-03T11:45:01.904Z,98692.35
2022-12-03T11:47:36.512Z,98693.37
2022-12-03T11:50:18.815Z,98695.91
2022-12-03T11:52:47.807Z,98697.66
2022-12-03T11:55:24.274Z,98694.62
2022-12-03T11:57:56.585Z,98695.25
2022-12-03T12:00:23.795Z,98698.07
2022-12-03T12:02:51.376Z,98705.14
2022-12-03T12:05:29.064Z,98703.47
2022-12-03T12:07:56.251Z,98705.02
2022-12-03T12:10:40.036Z,98704.23
2022-12-03T12:13:13.994Z,98693.88
2022-12-03T12:15:43.705Z,98697.38
2022-12-03T12:18:29.136Z,98698.07
2022-12-03T12:20:55.771Z,98692.05
2022-12-03T12:23:28.378Z,98693.94
2022-12-03T12:26:04.922Z,98695.49
2022-12-03T12:28:31.450Z,98690.81
2022-12-03T12:30:58.727Z,98694.65
2022-12-03T12:33:26.156Z,98692.64
2022-12-03T12:35:53.137Z,98691.85
2022-12-03T12:38:22.085Z,98688.38
2022-12-03T12:40:49.603Z,98686.39
2022-12-03T12:43:24.724Z,98685.80
2022-12-03T12:45:55.747Z,98689.06
2022-12-03T12:48:24.078Z,98688.35
2022-12-03T12:50:56.770Z,98691.89
2022-12-03T12:53:24.147Z,98695.22
2022-12-03T12:55:54.764Z,98693.42
2022-12-03T12:58:21.852Z,98695.27
2022-12-03T13:00:50.973Z,98693.05
2022-12-03T13:03:19.590Z,98694.09
2022-12-03T13:05:47.387Z,98691.73
2022-12-03T13:08:27.145Z,98688.57
2022-12-03T13:10:55.372Z,98690.89
2022-12-03T13:13:22.564Z,98694.95
2022-12-03T13:16:00.342Z,98688.60
2022-12-03T13:18:26.907Z,98687.41
2022-12-03T13:20:54.523Z,98687.14
2022-12-03T13:23:30.777Z,98691.85
2022-12-03T13:26:04.725Z,98693.10
2022-12-03T13:28:41.209Z,98694.74
2022-12-03T13:31:22.616Z,98695.71
2022-12-03T13:33:50.047Z,98693.60
2022-12-03T13:36:18.725Z,98690.96
2022-12-03T13:38:46.035Z,98699.17
2022-12-03T13:41:34.680Z,98699.46
2022-12-03T13:44:02.203Z,98700.16
2022-12-03T13:46:31.247Z,98698.91
2022-12-03T13:49:01.637Z,98699.42
2022-12-03T13:51:31.294Z,98699.64
2022-12-03T13:53:58.995Z,98698.54
2022-12-03T13:56:27.949Z,98699.09
2022-12-03T13:58:55.370Z,98697.04
2022-12-03T14:01:22.077Z,98698.96
2022-12-03T14:03:49.037Z,98703.57
2022-12-03T14:06:15.591Z,98707.19
2022-12-03T14:08:42.384Z,98711.42
2022-12-03T14:11:09.072Z,98716.42
2022-12-03T14:13:35.524Z,98721.98
2022-12-03T14:16:02.225Z,98723.14
2022-12-03T14:18:29.583Z,98727.67
2022-12-03T14:20:56.124Z,98731.08
2022-12-03T14:23:22.657Z,98730.27
2022-12-03T14:25:49.434Z,98726.34
2022-12-03T14:28:15.932Z,98725.67
2022-12-03T14:30:42.398Z,98725.82
2022-12-03T14:33:08.929Z,98727.02
2022-12-03T14:35:35.740Z,98726.47
2022-12-03T14:38:02.850Z,98727.98
2022-12-03T14:40:29.632Z,98724.89
2022-12-03T14:42:56.122Z,98724.37
2022-12-03T14:45:23.649Z,98726.83
2022-12-03T14:47:50.272Z,98728.63
2022-12-03T14:50:16.898Z,98730.17
2022-12-03T14:52:43.452Z,98734.46
2022-12-03T14:55:10.006Z,98732.78
2022-12-03T14:57:36.785Z,98732.45
2022-12-03T15:00:04.979Z,98732.72
2022-12-03T15:02:31.854Z,98737.79
2022-12-03T15:04:58.762Z,98741.46
2022-12-03T15:07:25.429Z,98739.35
2022-12-03T15:09:52.350Z,98743.35
2022-12-03T15:12:19.287Z,98747.05
2022-12-03T15:14:46.978Z,98746.79
2022-12-03T15:17:13.711Z,98746.84
2022-12-03T15:19:40.942Z,98749.65
2022-12-03T15:22:07.472Z,98749.59
2022-12-03T15:24:34.107Z,98751.50
2022-12-03T15:27:00.908Z,98750.11
2022-12-03T15:29:27.483Z,98750.65
2022-12-03T15:31:54.209Z,98753.30
2022-12-03T15:34:23.093Z,98757.77
2022-12-03T15:36:50.612Z,98754.92
2022-12-03T15:39:17.203Z,98758.81
2022-12-03T15:41:43.803Z,98759.88
2022-12-03T15:44:10.478Z,98759.23
2022-12-03T15:46:37.269Z,98759.52
2022-12-03T15:49:04.161Z,98759.33
2022-12-03T15:51:30.773Z,98759.06
2022-12-03T15:53:57.256Z,98763.71
2022-12-03T15:56:24.139Z,98768.05
2022-12-03T15:58:50.710Z,98767.02
2022-12-03T16:01:17.507Z,98768.94
2022-12-03T16:03:44.041Z,98772.34
2022-12-03T16:06:10.583Z,98773.36
2022-12-03T16:08:37.237Z,98771.48
2022-12-03T16:11:05.126Z,98772.79
2022-12-03T16:13:31.588Z,98772.42
2022-12-03T16:15:58.357Z,98769.36
2022-12-03T16:18:25.144Z,98766.92
2022-12-03T16:20:51.879Z,98770.58
2022-12-03T16:23:18.383Z,98767.80
2022-12-03T16:25:45.139Z,98765.09
2022-12-03T16:28:11.788Z,98764.75
2022-12-03T16:30:38.882Z,98762.32
2022-12-03T16:33:06.075Z,98764.25
2022-12-03T16:35:32.614Z,98761.57
2022-12-03T16:37:59.108Z,98761.21
2022-12-03T16:40:26.035Z,98763.85
2022-12-03T16:42:52.528Z,98767.60
2022-12-03T16:45:32.714Z,98767.17
2022-12-03T16:47:59.948Z,98766.95
2022-12-03T16:50:29.847Z,98768.08
2022-12-03T16:52:57.535Z,98772.98
2022-12-03T16:55:24.161Z,98768.71
2022-12-03T16:57:50.668Z,98774.22
2022-12-03T17:00:17.722Z,98776.15
2022-12-03T17:02:44.332Z,98778.38
2022-12-03T17:05:11.224Z,98779.09
2022-12-03T17:07:37.784Z,98783.91
2022-12-03T17:10:05.499Z,98784.72
2022-12-03T17:13:00.797Z,98786.45
2022-12-03T17:15:18.867Z,98786.86
2022-12-03T17:17:45.516Z,98783.02
2022-12-03T17:20:14.058Z,98787.41
2022-12-03T17:22:40.903Z,98789.92
2022-12-03T17:25:07.840Z,98788.04
2022-12-03T17:27:34.438Z,98789.20
2022-12-03T17:30:01.312Z,98793.92
2022-12-03T17:32:27.898Z,98793.19
2022-12-03T17:34:54.717Z,98791.95
2022-12-03T17:37:21.297Z,98794.39
2022-12-03T17:39:47.871Z,98795.63
2022-12-03T17:42:14.656Z,98790.98
2022-12-03T17:44:41.244Z,98794.80
2022-12-03T17:47:07.937Z,98795.81
2022-12-03T17:49:34.517Z,98794.49
2022-12-03T17:52:01.196Z,98797.80
2022-12-03T17:54:43.269Z,98798.24
2022-12-03T17:57:14.599Z,98797.66
2022-12-03T17:59:41.215Z,98800.85
2022-12-03T18:02:07.863Z,98799.36
2022-12-03T18:04:34.447Z,98798.38
2022-12-03T18:07:02.648Z,98792.65
2022-12-03T18:09:29.346Z,98791.96
2022-12-03T18:11:55.862Z,98785.88
2022-12-03T18:14:22.494Z,98783.39
2022-12-03T18:16:49.067Z,98787.61
2022-12-03T18:19:15.703Z,98788.04
2022-12-03T18:21:42.344Z,98786.13
2022-12-03T18:24:09.288Z,98783.33
2022-12-03T18:26:35.943Z,98783.55
2022-12-03T18:29:02.563Z,98785.52
2022-12-03T18:31:29.203Z,98783.15
2022-12-03T18:33:56.099Z,98782.83
2022-12-03T18:36:29.311Z,98787.32
2022-12-03T18:38:57.478Z,98789.19
2022-12-03T18:41:24.353Z,98792.38
2022-12-03T18:43:51.411Z,98790.70
2022-12-03T18:46:45.135Z,98787.93
2022-12-03T18:49:05.394Z,98789.11
2022-12-03T18:51:31.907Z,98791.19
2022-12-03T18:53:58.462Z,98790.98
2022-12-03T18:56:25.119Z,98794.09
2022-12-03T18:58:51.657Z,98795.28
2022-12-03T19:01:19.922Z,98793.75
2022-12-03T19:03:46.824Z,98792.53
2022-12-03T19:06:18.575Z,98792.10
2022-12-03T19:08:46.285Z,98789.80
2022-12-03T19:11:13.332Z,98787.48
2022-12-03T19:13:40.479Z,98788.36
2022-12-03T19:16:08.239Z,98786.56
2022-12-03T19:18:35.082Z,98789.98
2022-12-03T19:21:05.410Z,98785.94
2022-12-03T19:23:32.329Z,98786.74
2022-12-03T19:25:59.953Z,98786.06
2022-12-03T19:28:27.632Z,98780.73
2022-12-03T19:30:55.333Z,98779.96
2022-12-03T19:33:28.089Z,98779.41
2022-12-03T19:35:55.791Z,98782.52
2022-12-03T19:38:23.353Z,98785.32
2022-12-03T19:41:00.687Z,98785.11
2022-12-03T19:43:27.256Z,98791.36
2022-12-03T19:45:54.535Z,98792.80
2022-12-03T19:48:22.476Z,98791.34
2022-12-03T19:50:58.385Z,98789.23
2022-12-03T19:53:37.330Z,98793.20
2022-12-03T19:56:05.598Z,98796.42
2022-12-03T19:58:32.615Z,98799.93
2022-12-03T20:01:09.789Z,98798.64
2022-12-03T20:03:40.088Z,98802.97
2022-12-03T20:06:07.070Z,98800.70
2022-12-03T20:08:37.451Z,98799.32
2022-12-03T20:11:23.773Z,98799.48
2022-12-03T20:13:57.864Z,98798.25
2022-12-03T20:16:25.358Z,98797.26
2022-12-03T20:18:55.489Z,98797.13
2022-12-03T20:21:22.027Z,98803.71
2022-12-03T20:23:48.915Z,98802.27
2022-12-03T20:26:17.264Z,98800.00
2022-12-03T20:28:44.417Z,98800.02
2022-12-03T20:31:15.267Z,98799.55
2022-12-03T20:33:43.076Z,98801.33
2022-12-03T20:36:10.931Z,98799.02
2022-12-03T20:38:37.844Z,98800.06
2022-12-03T20:41:06.416Z,98797.52
2022-12-03T20:43:33.616Z,98798.23
2022-12-03T20:46:07.221Z,98796.15
2022-12-03T20:48:34.125Z,98798.25
2022-12-03T20:51:04.479Z,98802.73
2022-12-03T20:53:31.290Z,98800.45
2022-12-03T20:55:59.243Z,98804.21
2022-12-03T20:58:25.762Z,98807.21
2022-12-03T21:00:52.489Z,98802.36
2022-12-03T21:03:19.096Z,98797.92
2022-12-03T21:05:45.744Z,98797.12
2022-12-03T21:08:12.423Z,98797.80
2022-12-03T21:10:46.001Z,98800.86
2022-12-03T21:13:16.418Z,98798.92
2022-12-03T21:15:43.655Z,98802.62
2022-12-03T21:18:11.577Z,98804.80
2022-12-03T21:20:39.635Z,98803.94
2022-12-03T21:23:06.317Z,98804.80
2022-12-03T21:25:35.008Z,98802.45
2022-12-03T21:28:02.612Z,98803.08
2022-12-03T21:30:29.203Z,98801.91
2022-12-03T21:32:56.043Z,98800.67
2022-12-03T21:35:22.864Z,98800.70
2022-12-03T21:37:49.688Z,98797.44
2022-12-03T21:40:16.183Z,98795.72
2022-12-03T21:42:42.760Z,98794.36
2022-12-03T21:45:09.655Z,98795.70
2022-12-03T21:47:37.504Z,98800.00
2022-12-03T21:50:05.741Z,98806.23
2022-12-03T21:52:32.991Z,98802.59
2022-12-03T21:54:59.499Z,98806.13
2022-12-03T21:57:26.080Z,98804.40
2022-12-03T21:59:53.106Z,98800.41
2022-12-03T22:02:20.280Z,98799.52
2022-12-03T22:04:50.402Z,98792.77
2022-12-03T22:07:17.103Z,98796.17
2022-12-03T22:09:43.648Z,98798.38
2022-12-03T22:12:10.483Z,98797.58
2022-12-03T22:14:37.431Z,98798.07
2022-12-03T22:17:03.966Z,98798.30
2022-12-03T22:19:30.601Z,98796.17
2022-12-03T22:21:57.139Z,98791.44
2022-12-03T22:24:23.800Z,98793.70
2022-12-03T22:26:52.968Z,98793.31
2022-12-03T22:29:19.913Z,98789.15
2022-12-03T22:31:46.433Z,98793.41
2022-12-03T22:34:13.085Z,98790.91
2022-12-03T22:36:39.856Z,98787.00
2022-12-03T22:39:06.389Z,98789.76
2022-12-03T22:41:33.058Z,98792.01
2022-12-03T22:43:59.539Z,98790.67
2022-12-03T22:46:26.179Z,98790.26
2022-12-03T22:48:52.913Z,98784.96
2022-12-03T22:51:20.930Z,98786.81
2022-12-03T22:53:52.596Z,98784.46
2022-12-03T22:56:19.193Z,98792.24
2022-12-03T22:58:45.770Z,98792.02
2022-12-03T23:01:19.734Z,98789.30
2022-12-03T23:03:46.325Z,98788.42
2022-12-03T23:06:13.082Z,98789.88
2022-12-03T23:08:39.590Z,98786.63
2022-12-03T23:11:06.321Z,98783.02
2022-12-03T23:13:32.821Z,98781.41
2022-12-03T23:15:59.635Z,98783.51
2022-12-03T23:18:26.576Z,98783.56
2022-12-03T23:20:54.234Z,98779.40
2022-12-03T23:23:21.751Z,98778.17
2022-12-03T23:26:01.347Z,98780.80
2022-12-03T23:28:29.069Z,98784.11
2022-12-03T23:30:55.945Z,98784.36
2022-12-03T23:33:23.245Z,98784.42
2022-12-03T23:35:50.267Z,98779.91
2022-12-03T23:38:16.864Z,98768.95
2022-12-03T23:40:48.074Z,98767.35
2022-12-03T23:43:15.581Z,98775.05
2022-12-03T23:45:42.413Z,98776.85
2022-12-03T23:48:08.914Z,98769.89
2022-12-03T23:50:37.938Z,98770.15
2022-12-03T23:53:04.475Z,98769.23
2022-12-03T23:55:31.064Z,98774.73
2022-12-03T23:57:58.116Z,98772.50
